Signal Hill, California
Current Conditions -  °F | °C
As of 9:53 PM on Thursday 30 Oct 2014 (Local Time) from KLGB Reporting Station
Clear Clear  
Wind Chill: 19°   Ceiling: Unl
Heat Index: 19°   Visibility: 10mi
Dew Point: 16°   Wind: 0mph
Humidity: 84%   Direction: NA
Pressure: 29.96"   Gusts: NA
Location:  33.8°N, 118.16°W
Report Text: KLGB 310453Z 00000KT 10SM CLR 19/16 A2996 RMK AO2 SLP146 T01890161
Loading
Personal Weather Stations






























Interactive Weather Map
Tropical Storm Tracking
New forecast layout! Learn more

10-Day Weather Forecast

Advertisements
Track Severe Weather on mobile